< < Back
Terminal Aerodrome Forecast


Current Version              Previous Versions:   1  2  3  4  5  6  7  8  9  

Terminal Aerodrome Forecast

773
FTUS42 KILM 291120
TAFFLO
TAF
KFLO 291120Z 2912/3012 32003KT 2SM BR OVC002
     FM291400 35005KT P6SM SCT030
     FM291800 17006KT P6SM BKN045
     FM300000 19002KT P6SM BKN250=

Latest METAR

336
SAUS70 KWBC 291600 RRM
MTRFLO
METAR KFLO 291553Z 00000KT 10SM CLR 31/19 A2996 RMK AO2 SLP144
T03060194


USA.gov is the U.S. government's official web portal to all federal, state and local government web resources and services.